Time;durP1;ratioP1;P1;durP2;ratioP2;P2;SDS_P1;SDS_P2;PMS_P1;PMS_P2;Temp;Humidity;BMP_temperature;BMP_pressure;BME280_temperature;BME280_humidity;BME280_pressure;Samples;Min_cycle;Max_cycle;Signal;HPM_P1;HPM_P2
2021/01/16 00:01:18;;;;;;;19.30;9.38;;;;;;;-3.90;81.82;100711.09;2097846;83;21156;-69
2021/01/16 00:04:19;;;;;;;21.35;9.98;;;;;;;-3.89;81.82;100711.02;2092736;83;21219;-68
2021/01/16 00:07:21;;;;;;;21.12;9.55;;;;;;;-3.88;81.81;100699.75;2096436;83;21161;-69
2021/01/16 00:10:22;;;;;;;22.07;11.45;;;;;;;-3.87;81.75;100694.11;2066060;84;21078;-69
2021/01/16 00:13:33;;;;;;;25.12;11.18;;;;;;;-3.89;81.71;100703.69;2092491;83;21093;-68
2021/01/16 00:16:33;;;;;;;22.85;11.57;;;;;;;-3.89;81.70;100701.94;2094227;83;21122;-68
2021/01/16 00:19:35;;;;;;;25.65;11.85;;;;;;;-3.92;81.61;100700.77;2092642;83;21646;-71
2021/01/16 00:22:49;;;;;;;21.75;10.82;;;;;;;-3.94;81.58;100708.20;2092811;83;21165;-68
2021/01/16 00:25:51;;;;;;;22.48;11.10;;;;;;;-3.96;81.65;100708.73;2098890;83;21130;-71
2021/01/16 00:28:53;;;;;;;25.17;11.50;;;;;;;-3.99;81.64;100712.30;2096308;83;21141;-69
2021/01/16 00:31:54;;;;;;;22.93;10.78;;;;;;;-3.98;81.62;100715.27;2101206;83;21559;-68
2021/01/16 00:34:56;;;;;;;22.55;10.65;;;;;;;-4.03;81.59;100714.59;2084221;84;21206;-68
2021/01/16 00:37:57;;;;;;;18.82;10.35;;;;;;;-4.02;81.59;100718.06;2091091;83;21219;-68
2021/01/16 00:40:59;;;;;;;21.17;10.90;;;;;;;-4.01;81.62;100727.52;2093385;83;21512;-68
2021/01/16 00:44:00;;;;;;;16.55;10.03;;;;;;;-4.02;81.60;100715.47;2074970;83;21095;-67
2021/01/16 00:47:02;;;;;;;19.77;10.10;;;;;;;-4.04;81.53;100713.38;2085356;84;21136;-68
2021/01/16 00:50:12;;;;;;;21.55;10.48;;;;;;;-4.04;81.53;100709.03;2098677;83;21220;-68
2021/01/16 00:53:15;;;;;;;25.25;11.33;;;;;;;-4.04;81.46;100704.30;2099064;83;21077;-70
2021/01/16 00:56:18;;;;;;;17.60;9.50;;;;;;;-4.08;81.37;100716.55;2099720;83;21121;-69
2021/01/16 00:59:21;;;;;;;20.10;9.90;;;;;;;-4.10;81.46;100714.00;2092432;83;21129;-68
2021/01/16 01:02:25;;;;;;;17.37;8.68;;;;;;;-4.13;81.39;100716.71;2100335;83;21129;-68
2021/01/16 01:05:26;;;;;;;20.00;10.38;;;;;;;-4.16;81.33;100715.99;2097123;83;21183;-68
2021/01/16 01:08:29;;;;;;;19.77;10.40;;;;;;;-4.19;81.33;100720.84;2092200;83;21208;-69
2021/01/16 01:11:31;;;;;;;17.05;8.95;;;;;;;-4.18;81.39;100722.52;2098025;83;21129;-68
2021/01/16 01:14:32;;;;;;;17.47;9.57;;;;;;;-4.20;81.38;100720.42;2096769;83;21137;-68
2021/01/16 01:17:34;;;;;;;14.98;8.50;;;;;;;-4.20;81.38;100722.17;2093158;83;21188;-68
2021/01/16 01:20:36;;;;;;;19.02;8.48;;;;;;;-4.20;81.36;100717.83;2096552;83;21143;-67
2021/01/16 01:23:37;;;;;;;17.60;8.73;;;;;;;-4.20;81.29;100723.02;2098003;83;21107;-68
2021/01/16 01:26:39;;;;;;;16.07;8.90;;;;;;;-4.24;81.19;100715.44;2096555;83;21184;-71
2021/01/16 01:29:40;;;;;;;16.32;9.08;;;;;;;-4.26;81.22;100714.64;2099044;83;21215;-69
2021/01/16 01:32:42;;;;;;;20.83;8.93;;;;;;;-4.30;81.25;100717.81;2088189;83;21636;-70
2021/01/16 01:35:44;;;;;;;20.43;9.97;;;;;;;-4.29;81.30;100723.38;2090250;83;21212;-68
2021/01/16 01:38:46;;;;;;;21.07;10.55;;;;;;;-4.29;81.42;100722.08;2086798;83;21167;-68
2021/01/16 01:41:47;;;;;;;17.63;9.33;;;;;;;-4.28;81.45;100725.05;2087234;83;22975;-68
2021/01/16 01:44:49;;;;;;;18.73;9.80;;;;;;;-4.30;81.45;100720.40;2091949;83;21191;-68
2021/01/16 01:47:53;;;;;;;17.47;9.93;;;;;;;-4.30;81.50;100719.10;2086538;83;21141;-69
2021/01/16 01:50:55;;;;;;;21.20;9.90;;;;;;;-4.31;81.45;100721.28;2091347;83;21142;-69
2021/01/16 01:53:59;;;;;;;22.63;10.43;;;;;;;-4.30;81.59;100724.28;2089226;83;21121;-69
2021/01/16 01:57:06;;;;;;;16.77;8.85;;;;;;;-4.31;81.59;100714.80;2085931;83;21603;-68
2021/01/16 02:00:10;;;;;;;19.40;9.13;;;;;;;-4.32;81.61;100719.14;2091503;83;21664;-68
2021/01/16 02:03:15;;;;;;;20.45;8.50;;;;;;;-4.33;81.77;100717.92;2087187;83;21575;-68
2021/01/16 02:06:17;;;;;;;16.37;9.03;;;;;;;-4.33;81.79;100722.65;2090042;83;21151;-68
2021/01/16 02:09:19;;;;;;;17.10;10.17;;;;;;;-4.34;81.74;100721.40;2086117;83;21189;-69
2021/01/16 02:12:23;;;;;;;20.20;9.20;;;;;;;-4.34;81.69;100720.10;2086723;83;21616;-69
2021/01/16 02:15:41;;;;;;;19.25;9.80;;;;;;;-4.33;81.74;100717.92;2090420;83;22292;-69
2021/01/16 02:18:46;;;;;;;15.07;8.13;;;;;;;-4.32;81.74;100717.02;2088989;83;21165;-68
2021/01/16 02:21:48;;;;;;;21.77;9.47;;;;;;;-4.35;81.66;100719.27;2083764;83;21200;-68
2021/01/16 02:25:07;;;;;;;17.70;9.43;;;;;;;-4.36;81.69;100720.63;2089084;83;21177;-68
2021/01/16 02:28:21;;;;;;;14.97;8.70;;;;;;;-4.35;81.77;100714.54;2090761;83;21122;-71
2021/01/16 02:31:40;;;;;;;18.67;8.63;;;;;;;-4.35;81.81;100714.54;2098622;83;21685;-68
2021/01/16 02:34:42;;;;;;;16.37;9.67;;;;;;;-4.36;81.87;100722.77;2113703;83;21209;-68
2021/01/16 02:38:21;;;;;;;15.67;8.70;;;;;;;-4.35;81.99;100723.61;2118644;83;21174;-68
2021/01/16 02:41:58;;;;;;;14.77;8.43;;;;;;;-4.34;81.96;100718.81;2122095;83;21177;-68
2021/01/16 02:45:07;;;;;;;17.07;8.47;;;;;;;-4.32;81.91;100713.12;2120581;83;21163;-69
2021/01/16 02:48:24;;;;;;;14.83;8.30;;;;;;;-4.33;81.96;100716.62;2111046;83;21183;-68
2021/01/16 02:51:31;;;;;;;14.40;8.63;;;;;;;-4.36;81.93;100717.59;2116990;83;21095;-68
2021/01/16 02:54:40;;;;;;;18.40;8.53;;;;;;;-4.33;82.08;100720.52;2119058;83;21098;-69
2021/01/16 02:57:41;;;;;;;18.63;9.77;;;;;;;-4.33;81.96;100716.62;2115734;83;21590;-68
2021/01/16 03:00:44;;;;;;;15.30;8.13;;;;;;;-4.33;81.98;100718.77;2119185;83;21156;-68
2021/01/16 03:03:46;;;;;;;15.05;8.10;;;;;;;-4.32;82.09;100711.37;2119467;83;21123;-68
2021/01/16 03:06:51;;;;;;;14.47;7.80;;;;;;;-4.32;82.03;100719.14;2117382;83;21102;-67
2021/01/16 03:09:54;;;;;;;14.40;8.47;;;;;;;-4.27;82.11;100713.80;2120467;83;21475;-70
2021/01/16 03:12:55;;;;;;;15.72;8.45;;;;;;;-4.30;81.99;100718.64;2119136;83;21118;-68
2021/01/16 03:15:58;;;;;;;14.87;9.07;;;;;;;-4.28;82.14;100712.09;2116757;83;21109;-68
2021/01/16 03:19:02;;;;;;;16.67;9.27;;;;;;;-4.29;82.14;100713.00;2115433;83;21559;-68
2021/01/16 03:22:17;;;;;;;14.83;8.13;;;;;;;-4.29;82.14;100712.55;2115419;83;22613;-70
2021/01/16 03:25:25;;;;;;;16.13;8.20;;;;;;;-4.29;82.16;100707.83;2121167;83;22184;-68
2021/01/16 03:28:26;;;;;;;13.50;8.50;;;;;;;-4.29;82.24;100711.25;2115844;83;21150;-68
2021/01/16 03:31:28;;;;;;;17.63;7.90;;;;;;;-4.28;82.30;100715.98;2114645;83;21134;-68
2021/01/16 03:34:29;;;;;;;16.57;8.00;;;;;;;-4.27;82.27;100713.80;2116286;83;21095;-70
2021/01/16 03:37:31;;;;;;;14.70;7.87;;;;;;;-4.28;82.32;100713.39;2114025;83;21092;-69
2021/01/16 03:40:32;;;;;;;14.63;8.27;;;;;;;-4.28;82.27;100721.16;2114352;83;21087;-69
2021/01/16 03:43:34;;;;;;;14.27;9.23;;;;;;;-4.27;82.27;100718.14;2117699;83;21158;-68
2021/01/16 03:46:35;;;;;;;13.47;7.87;;;;;;;-4.26;82.29;100717.23;2118181;83;21084;-68
2021/01/16 03:49:36;;;;;;;11.17;6.93;;;;;;;-4.27;82.24;100716.39;2096860;83;21110;-68
2021/01/16 03:52:40;;;;;;;13.32;7.75;;;;;;;-4.26;82.28;100719.37;2111784;83;21111;-69
2021/01/16 03:55:41;;;;;;;15.03;8.03;;;;;;;-4.26;82.33;100723.25;2113694;83;21562;-68
2021/01/16 03:58:43;;;;;;;16.80;9.10;;;;;;;-4.25;82.32;100721.08;2119928;83;21162;-68
2021/01/16 04:01:46;;;;;;;14.93;7.97;;;;;;;-4.24;82.29;100723.21;2113149;83;21163;-67
2021/01/16 04:04:49;;;;;;;15.60;8.30;;;;;;;-4.25;82.43;100717.19;2117953;83;21178;-70
2021/01/16 04:07:51;;;;;;;13.17;8.13;;;;;;;-4.26;82.36;100710.30;2115441;83;21099;-69
2021/01/16 04:10:52;;;;;;;14.20;8.03;;;;;;;-4.27;82.33;100712.97;2114261;83;21099;-68
2021/01/16 04:13:54;;;;;;;14.03;7.70;;;;;;;-4.27;82.38;100716.85;2116563;83;21142;-69
2021/01/16 04:16:55;;;;;;;13.22;7.50;;;;;;;-4.30;82.42;100716.52;2118096;83;21151;-69
2021/01/16 04:19:57;;;;;;;12.83;7.70;;;;;;;-4.30;82.50;100693.19;2117380;83;21608;-69
2021/01/16 04:22:58;;;;;;;12.18;7.30;;;;;;;-4.31;82.65;100701.42;2115479;83;21068;-69
2021/01/16 04:26:01;;;;;;;15.13;8.23;;;;;;;-4.31;82.56;100699.25;2115545;83;21103;-69
2021/01/16 04:29:03;;;;;;;12.55;8.35;;;;;;;-4.31;82.56;100700.55;2121731;83;21268;-68
2021/01/16 04:32:05;;;;;;;13.03;7.80;;;;;;;-4.32;82.49;100690.64;2104288;83;21179;-68
2021/01/16 04:35:08;;;;;;;12.50;7.10;;;;;;;-4.31;82.48;100700.55;2090338;83;21127;-69
2021/01/16 04:38:10;;;;;;;13.75;7.92;;;;;;;-4.30;82.37;100693.19;2081397;83;21217;-68
2021/01/16 04:41:13;;;;;;;16.32;7.92;;;;;;;-4.30;82.30;100692.73;2083175;83;21118;-68
2021/01/16 04:44:17;;;;;;;15.70;7.47;;;;;;;-4.30;82.32;100699.67;2085366;83;21645;-68
2021/01/16 04:47:25;;;;;;;13.63;7.70;;;;;;;-4.29;82.29;100696.16;2085629;83;21209;-69
2021/01/16 04:50:30;;;;;;;13.93;7.07;;;;;;;-4.30;82.23;100694.48;2088699;83;21208;-69
2021/01/16 04:53:41;;;;;;;12.30;7.40;;;;;;;-4.27;82.30;100702.14;2089211;83;21164;-69
2021/01/16 04:56:46;;;;;;;13.48;7.83;;;;;;;-4.28;82.26;100700.43;2084306;83;21588;-71
2021/01/16 04:59:48;;;;;;;12.13;7.20;;;;;;;-4.28;82.32;100704.31;2068582;83;22385;-69
2021/01/16 05:02:52;;;;;;;12.23;7.42;;;;;;;-4.28;82.30;100697.84;2065494;84;21166;-68
2021/01/16 05:05:57;;;;;;;13.23;7.33;;;;;;;-4.32;82.27;100704.05;2084469;83;21116;-70
2021/01/16 05:08:59;;;;;;;11.40;7.10;;;;;;;-4.43;82.33;100688.07;2088070;83;21173;-69
2021/01/16 05:12:29;;;;;;;12.97;7.83;;;;;;;-4.33;82.38;100702.38;2089021;83;21169;-68
2021/01/16 05:15:36;;;;;;;13.32;7.83;;;;;;;-4.31;82.47;100696.66;2087985;83;21188;-71
2021/01/16 05:18:42;;;;;;;11.53;6.93;;;;;;;-4.31;82.36;100696.23;2087941;83;21549;-69
2021/01/16 05:21:44;;;;;;;15.03;8.38;;;;;;;-4.32;82.31;100700.17;2086405;83;21762;-68
2021/01/16 05:24:45;;;;;;;9.53;6.80;;;;;;;-4.31;82.37;100694.08;2084681;83;21110;-71
2021/01/16 05:27:52;;;;;;;12.67;7.63;;;;;;;-4.30;82.32;100681.53;2087434;83;21190;-70
2021/01/16 05:31:07;;;;;;;13.38;6.87;;;;;;;-4.32;82.20;100687.22;2080686;83;21121;-69
2021/01/16 05:34:11;;;;;;;13.13;7.28;;;;;;;-4.34;82.14;100686.42;2097446;83;21144;-69
2021/01/16 05:37:13;;;;;;;10.40;6.70;;;;;;;-4.34;82.23;100689.02;2098749;83;21174;-69
2021/01/16 05:40:18;;;;;;;11.60;6.97;;;;;;;-4.34;82.27;100683.38;2096284;83;21530;-68
2021/01/16 05:43:20;;;;;;;11.17;7.03;;;;;;;-4.35;82.16;100682.16;2101121;83;21115;-68
2021/01/16 05:46:23;;;;;;;12.33;6.80;;;;;;;-4.36;82.16;100679.17;2094895;83;21140;-68
2021/01/16 05:49:26;;;;;;;11.10;6.70;;;;;;;-4.38;82.20;100680.98;2098559;84;21163;-71
2021/01/16 05:52:28;;;;;;;12.27;8.20;;;;;;;-4.39;82.14;100681.43;2093783;83;21943;-69
2021/01/16 05:55:33;;;;;;;11.93;6.93;;;;;;;-4.38;82.17;100693.47;2071521;83;21195;-68
2021/01/16 05:58:35;;;;;;;11.07;7.30;;;;;;;-4.36;82.24;100683.06;2098300;84;21177;-69
2021/01/16 06:01:38;;;;;;;13.90;7.87;;;;;;;-4.36;82.16;100679.17;2094320;83;21123;-68
2021/01/16 06:04:47;;;;;;;16.37;9.43;;;;;;;-4.37;82.21;100679.61;2099479;83;21650;-68
2021/01/16 06:07:54;;;;;;;12.37;8.13;;;;;;;-4.35;82.18;100678.27;2103987;83;21992;-68
2021/01/16 06:10:56;;;;;;;13.70;8.20;;;;;;;-4.34;82.20;100670.87;2062104;83;21580;-68
2021/01/16 06:14:02;;;;;;;18.67;8.33;;;;;;;-4.36;82.12;100671.41;2102382;83;21188;-69
2021/01/16 06:17:05;;;;;;;17.47;8.20;;;;;;;-4.37;82.13;100671.83;2101204;83;21614;-71
2021/01/16 06:20:09;;;;;;;13.80;7.47;;;;;;;-4.39;82.14;100667.19;2095002;83;21521;-69
2021/01/16 06:23:17;;;;;;;17.67;9.20;;;;;;;-4.40;82.14;100671.11;2095257;83;21264;-67
2021/01/16 06:26:24;;;;;;;18.03;9.50;;;;;;;-4.40;82.19;100675.00;2097389;83;21177;-69
2021/01/16 06:29:37;;;;;;;22.73;9.43;;;;;;;-4.38;82.15;100673.20;2091137;84;21148;-69
2021/01/16 06:32:49;;;;;;;14.83;8.60;;;;;;;-4.42;82.05;100667.73;2092316;83;21950;-68
2021/01/16 06:36:03;;;;;;;17.35;8.88;;;;;;;-4.45;82.05;100676.45;2086156;83;21181;-68
2021/01/16 06:39:09;;;;;;;18.93;9.33;;;;;;;-4.46;82.08;100675.23;2087450;83;21588;-68
2021/01/16 06:42:15;;;;;;;18.40;9.10;;;;;;;-4.49;82.08;100679.23;2085027;83;21135;-67
2021/01/16 06:45:20;;;;;;;15.87;7.97;;;;;;;-4.49;82.10;100684.42;2059991;83;21605;-68
2021/01/16 06:48:24;;;;;;;15.70;8.13;;;;;;;-4.48;81.96;100680.91;2088427;83;21108;-70
2021/01/16 06:51:26;;;;;;;14.30;8.70;;;;;;;-4.54;81.74;100671.17;2066888;83;21521;-69
2021/01/16 06:54:36;;;;;;;14.47;7.97;;;;;;;-4.57;81.79;100674.34;2075471;83;21644;-70
2021/01/16 06:57:38;;;;;;;15.80;7.95;;;;;;;-4.60;81.68;100686.11;2088399;83;21192;-68
2021/01/16 07:00:40;;;;;;;14.43;7.47;;;;;;;-4.63;81.70;100685.77;2082701;83;21506;-68
2021/01/16 07:03:46;;;;;;;18.17;8.23;;;;;;;-4.64;81.60;100684.09;2089076;83;21327;-68
2021/01/16 07:06:49;;;;;;;14.90;8.30;;;;;;;-4.65;81.68;100682.38;2083895;83;21609;-68
2021/01/16 07:09:51;;;;;;;12.23;8.40;;;;;;;-4.65;81.52;100686.27;2082350;83;21229;-68
2021/01/16 07:12:53;;;;;;;13.13;8.40;;;;;;;-4.62;81.61;100690.48;2092413;83;21137;-69
2021/01/16 07:15:55;;;;;;;17.47;9.53;;;;;;;-4.62;81.41;100693.92;2065031;83;21241;-69
2021/01/16 07:18:56;;;;;;;14.97;7.97;;;;;;;-4.61;81.45;100696.08;2086701;83;21155;-70
2021/01/16 07:21:58;;;;;;;11.37;6.40;;;;;;;-4.61;81.29;100694.78;2062308;84;21613;-70
2021/01/16 07:25:01;;;;;;;13.03;7.10;;;;;;;-4.64;81.29;100697.03;2066486;83;21161;-71
2021/01/16 07:28:05;;;;;;;14.80;8.53;;;;;;;-4.62;81.34;100700.39;2086338;83;21093;-71
2021/01/16 07:31:07;;;;;;;9.23;5.70;;;;;;;-4.62;81.30;100688.73;2082653;83;21206;-70
2021/01/16 07:34:09;;;;;;;13.13;6.77;;;;;;;-4.63;81.02;100696.12;2103533;82;21567;-71
2021/01/16 07:37:10;;;;;;;13.57;7.17;;;;;;;-4.62;81.13;100692.62;2108747;82;21112;-70
2021/01/16 07:40:18;;;;;;;14.57;6.87;;;;;;;-4.64;80.94;100692.31;2104451;82;22159;-70
2021/01/16 07:43:31;;;;;;;10.73;5.80;;;;;;;-4.68;80.94;100696.73;2104558;82;21151;-67
2021/01/16 07:46:34;;;;;;;15.03;6.90;;;;;;;-4.71;80.81;100701.19;2104968;82;21123;-68
2021/01/16 07:49:40;;;;;;;11.77;6.63;;;;;;;-4.73;80.82;100693.47;2103224;82;21126;-67
2021/01/16 07:52:47;;;;;;;12.63;6.23;;;;;;;-4.75;80.73;100704.35;2105163;82;21208;-71
2021/01/16 07:55:54;;;;;;;12.57;6.83;;;;;;;-4.77;80.33;100699.21;2099551;82;21240;-68
2021/01/16 07:59:18;;;;;;;11.50;5.97;;;;;;;-4.81;80.31;100697.64;2089703;82;21210;-68
2021/01/16 08:02:28;;;;;;;10.23;5.73;;;;;;;-4.83;80.09;100693.42;2104794;82;21201;-70
2021/01/16 08:05:40;;;;;;;13.37;7.53;;;;;;;-4.81;80.22;100686.00;2102937;82;21129;-67
2021/01/16 08:09:05;;;;;;;11.67;6.97;;;;;;;-4.74;79.95;100682.27;2097010;82;21851;-69
2021/01/16 08:12:11;;;;;;;14.83;7.20;;;;;;;-4.67;79.98;100691.10;2100654;82;21438;-72
2021/01/16 08:15:17;;;;;;;12.60;6.70;;;;;;;-4.56;79.99;100686.38;2097675;82;22599;-69
2021/01/16 08:18:22;;;;;;;11.83;6.17;;;;;;;-4.46;79.70;100684.30;2101147;82;21209;-67
2021/01/16 08:21:23;;;;;;;12.13;6.07;;;;;;;-4.37;79.58;100681.36;2106024;82;21193;-67
2021/01/16 08:24:30;;;;;;;10.40;6.25;;;;;;;-4.34;79.61;100685.13;2101040;82;22255;-68
2021/01/16 08:27:38;;;;;;;10.80;6.87;;;;;;;-4.29;79.41;100680.16;2104491;82;21112;-67
2021/01/16 08:30:40;;;;;;;13.43;6.70;;;;;;;-4.31;79.18;100688.89;2097332;82;21185;-69
2021/01/16 08:33:42;;;;;;;12.90;6.92;;;;;;;-4.35;79.02;100697.23;2105591;82;21209;-70
2021/01/16 08:36:45;;;;;;;8.60;5.12;;;;;;;-4.40;78.98;100682.77;2105162;82;21144;-67
2021/01/16 08:39:47;;;;;;;14.30;8.75;;;;;;;-4.41;78.23;100688.41;2101356;82;21573;-66
2021/01/16 08:42:53;;;;;;;13.70;6.30;;;;;;;-4.40;78.47;100689.25;2101832;82;21167;-67
2021/01/16 08:46:18;;;;;;;9.48;6.15;;;;;;;-4.39;78.22;100687.91;2108872;82;21288;-67
2021/01/16 08:49:20;;;;;;;13.20;7.20;;;;;;;-4.45;78.06;100688.57;2098790;82;21169;-66
2021/01/16 08:52:34;;;;;;;11.67;6.57;;;;;;;-4.51;77.72;100693.07;2076397;82;21167;-66
2021/01/16 08:55:35;;;;;;;14.90;7.67;;;;;;;-4.48;78.37;100692.58;2107783;82;21143;-66
2021/01/16 08:58:39;;;;;;;8.93;5.85;;;;;;;-4.44;77.87;100700.19;2103029;82;21571;-65
2021/01/16 09:01:41;;;;;;;11.85;6.85;;;;;;;-4.41;77.49;100699.23;2081658;84;21187;-66
2021/01/16 09:04:46;;;;;;;11.05;6.25;;;;;;;-4.41;77.37;100696.64;2101237;82;21216;-65
2021/01/16 09:07:48;;;;;;;11.80;6.77;;;;;;;-4.41;77.04;100696.19;2099019;82;21527;-65
2021/01/16 09:10:52;;;;;;;10.30;6.23;;;;;;;-4.37;77.28;100700.78;2107560;82;21218;-66
2021/01/16 09:13:54;;;;;;;12.35;6.33;;;;;;;-4.37;76.85;100693.02;2101560;82;21530;-66
2021/01/16 09:16:56;;;;;;;8.75;5.65;;;;;;;-4.37;76.49;100700.33;2107483;82;21137;-66
2021/01/16 09:19:58;;;;;;;15.15;6.75;;;;;;;-4.28;76.60;100706.91;2102984;82;21192;-67
2021/01/16 09:23:20;;;;;;;11.83;6.85;;;;;;;-4.09;76.53;100707.90;2106541;82;21171;-67
2021/01/16 09:26:25;;;;;;;12.82;6.62;;;;;;;-3.95;76.30;100703.48;2096293;82;21137;-67
2021/01/16 09:29:27;;;;;;;10.95;5.58;;;;;;;-3.81;76.38;100699.05;2106844;82;21148;-67
2021/01/16 09:32:33;;;;;;;13.70;7.33;;;;;;;-3.73;75.21;100694.86;2103630;82;21254;-66
2021/01/16 09:35:40;;;;;;;11.43;6.03;;;;;;;-3.65;75.82;100699.28;2096495;83;21245;-66
2021/01/16 09:38:41;;;;;;;12.35;6.20;;;;;;;-3.52;75.45;100694.00;2095225;83;21109;-68
2021/01/16 09:41:52;;;;;;;12.30;5.80;;;;;;;-3.44;75.89;100700.98;2099306;83;21180;-66
2021/01/16 09:44:56;;;;;;;11.50;6.53;;;;;;;-3.35;75.61;100695.02;2083374;83;21616;-65
2021/01/16 09:47:57;;;;;;;9.75;6.00;;;;;;;-3.08;75.50;100694.32;2094047;83;21172;-65
2021/01/16 09:51:02;;;;;;;13.60;6.55;;;;;;;-2.81;75.30;100697.02;2096800;83;21155;-66
2021/01/16 09:54:15;;;;;;;10.13;5.75;;;;;;;-2.73;74.86;100698.00;2094452;83;21621;-67
2021/01/16 09:57:38;;;;;;;13.50;5.83;;;;;;;-2.64;74.53;100701.94;2100267;83;21637;-67
2021/01/16 10:00:39;;;;;;;13.18;5.67;;;;;;;-2.47;73.83;100691.63;2098058;83;21125;-66
2021/01/16 10:03:42;;;;;;;10.10;5.65;;;;;;;-2.55;73.55;100680.27;2096219;83;21591;-67
2021/01/16 10:06:46;;;;;;;10.28;6.20;;;;;;;-2.69;73.74;100677.91;2099005;83;21196;-66
2021/01/16 10:09:50;;;;;;;11.28;6.03;;;;;;;-2.71;73.81;100668.41;2096348;83;21195;-70
2021/01/16 10:13:02;;;;;;;12.43;6.33;;;;;;;-2.78;73.46;100660.52;2098343;83;21171;-69
2021/01/16 10:16:07;;;;;;;12.73;6.10;;;;;;;-2.87;73.87;100658.34;2092904;83;21165;-66
2021/01/16 10:19:13;;;;;;;13.08;6.15;;;;;;;-3.02;73.44;100655.94;2092080;83;21200;-66
2021/01/16 10:22:18;;;;;;;11.18;5.58;;;;;;;-3.14;73.39;100645.27;2096485;83;21270;-65
2021/01/16 10:25:37;;;;;;;13.80;6.83;;;;;;;-3.26;73.44;100639.70;2094000;83;21192;-70
2021/01/16 10:28:50;;;;;;;10.23;5.97;;;;;;;-3.34;72.94;100646.13;2095449;83;21200;-71
2021/01/16 10:31:52;;;;;;;8.90;5.28;;;;;;;-3.46;73.14;100633.22;2092988;83;21089;-64
2021/01/16 10:34:58;;;;;;;11.03;5.22;;;;;;;-3.49;73.34;100630.73;2099398;82;21227;-66
2021/01/16 10:38:01;;;;;;;9.18;4.72;;;;;;;-3.47;73.98;100638.84;2097067;82;21536;-64
2021/01/16 10:41:03;;;;;;;7.45;4.37;;;;;;;-3.46;73.91;100633.22;2098928;82;21115;-63
2021/01/16 10:44:14;;;;;;;9.48;5.53;;;;;;;-3.46;73.96;100622.84;2070541;84;21182;-67
2021/01/16 10:47:37;;;;;;;8.30;5.40;;;;;;;-3.54;74.10;100615.84;2132683;81;21175;-65
2021/01/16 10:50:41;;;;;;;6.58;4.17;;;;;;;-3.62;74.34;100604.02;2134536;81;21147;-64
2021/01/16 10:53:43;;;;;;;6.75;4.55;;;;;;;-3.68;74.43;100595.20;2114768;81;21162;-64
2021/01/16 10:57:06;;;;;;;8.58;4.90;;;;;;;-3.68;74.28;100592.61;2135218;81;21165;-63
2021/01/16 11:00:11;;;;;;;7.95;4.78;;;;;;;-3.70;74.63;100582.74;2110932;83;21551;-65
2021/01/16 11:03:20;;;;;;;7.78;4.87;;;;;;;-3.62;74.86;100567.70;2133392;81;21922;-66
2021/01/16 11:06:25;;;;;;;11.30;6.03;;;;;;;-3.56;74.65;100565.76;2135657;81;21562;-66
2021/01/16 11:09:41;;;;;;;10.30;5.80;;;;;;;-3.55;74.77;100564.84;2135586;81;21201;-66
2021/01/16 11:12:44;;;;;;;7.55;5.33;;;;;;;-3.54;75.09;100567.84;2133271;81;21581;-66
2021/01/16 11:15:49;;;;;;;8.35;5.15;;;;;;;-3.54;75.25;100557.47;2136466;81;21170;-70
2021/01/16 11:18:52;;;;;;;6.42;4.58;;;;;;;-3.51;75.09;100552.98;2132368;81;21668;-66
2021/01/16 11:22:07;;;;;;;11.50;5.67;;;;;;;-3.50;75.45;100555.95;2061479;83;21224;-66
2021/01/16 11:25:17;;;;;;;7.35;5.10;;;;;;;-3.44;75.29;100545.30;2109112;82;21599;-65
2021/01/16 11:28:24;;;;;;;8.13;4.97;;;;;;;-3.43;75.42;100543.57;2134809;81;22845;-66
2021/01/16 11:31:34;;;;;;;8.45;5.92;;;;;;;-3.47;75.36;100537.65;2137698;81;21178;-70
2021/01/16 11:34:59;;;;;;;11.60;5.85;;;;;;;-3.56;75.50;100534.63;2130927;81;21113;-66
2021/01/16 11:38:01;;;;;;;9.93;5.37;;;;;;;-3.59;75.41;100527.82;2130274;81;21173;-69
2021/01/16 11:41:03;;;;;;;8.85;5.70;;;;;;;-3.66;75.46;100525.95;2132363;81;21106;-66
2021/01/16 11:44:06;;;;;;;8.80;5.67;;;;;;;-3.68;75.61;100529.06;2130026;81;21074;-66
2021/01/16 11:47:07;;;;;;;9.65;6.17;;;;;;;-3.69;75.57;100525.23;2132730;81;21220;-66
2021/01/16 11:50:11;;;;;;;9.95;6.35;;;;;;;-3.73;75.65;100512.85;2131505;81;21142;-66
2021/01/16 11:53:13;;;;;;;12.40;6.10;;;;;;;-3.73;75.74;100510.72;2116223;81;21705;-67
2021/01/16 11:56:20;;;;;;;12.88;6.53;;;;;;;-3.75;75.69;100512.06;2132506;81;21147;-69
2021/01/16 11:59:24;;;;;;;9.15;5.10;;;;;;;-3.78;75.78;100505.72;2133111;81;21162;-70
2021/01/16 12:02:27;;;;;;;9.50;5.72;;;;;;;-3.82;75.70;100500.29;2135656;81;21118;-67
2021/01/16 12:05:29;;;;;;;8.88;5.60;;;;;;;-3.85;75.95;100493.48;2139091;81;21195;-66
2021/01/16 12:08:30;;;;;;;11.57;6.55;;;;;;;-3.83;76.04;100490.81;2134125;81;21140;-67
2021/01/16 12:11:32;;;;;;;9.10;5.53;;;;;;;-3.80;76.17;100482.92;2112988;81;21132;-66
2021/01/16 12:14:36;;;;;;;12.07;6.62;;;;;;;-3.76;76.14;100471.95;2133530;81;21547;-65
2021/01/16 12:17:39;;;;;;;9.65;5.97;;;;;;;-3.71;76.37;100481.22;2134793;81;21105;-67
2021/01/16 12:20:40;;;;;;;12.37;6.72;;;;;;;-3.62;76.35;100470.43;2131556;81;21625;-70
2021/01/16 12:23:46;;;;;;;13.40;6.87;;;;;;;-3.56;76.34;100473.20;2130738;81;21151;-66
2021/01/16 12:26:51;;;;;;;13.15;6.65;;;;;;;-3.57;76.18;100465.05;2132670;81;21170;-70
2021/01/16 12:29:55;;;;;;;13.25;6.92;;;;;;;-3.54;76.31;100465.38;2113726;82;21103;-67
2021/01/16 12:32:57;;;;;;;11.88;7.00;;;;;;;-3.56;76.25;100454.22;2132790;81;21163;-69
2021/01/16 12:36:10;;;;;;;14.58;6.58;;;;;;;-3.57;76.29;100456.43;2142329;81;21153;-67
2021/01/16 12:39:12;;;;;;;13.70;7.15;;;;;;;-3.65;76.34;100444.63;2119176;82;21135;-66
2021/01/16 12:42:14;;;;;;;10.68;6.30;;;;;;;-3.70;76.35;100447.88;2141758;81;21155;-70
2021/01/16 12:45:21;;;;;;;12.25;6.80;;;;;;;-3.75;76.40;100444.64;2141098;81;21195;-66
2021/01/16 12:48:29;;;;;;;12.03;6.92;;;;;;;-3.82;76.57;100430.28;2139034;81;21185;-67
2021/01/16 12:51:32;;;;;;;12.03;6.70;;;;;;;-3.83;76.74;100436.36;2136440;81;21176;-69
2021/01/16 12:54:34;;;;;;;10.48;5.60;;;;;;;-3.84;76.82;100430.33;2143159;81;21567;-67
2021/01/16 12:57:41;;;;;;;12.18;7.50;;;;;;;-3.85;76.75;100428.66;2139346;81;21532;-67
2021/01/16 13:00:44;;;;;;;12.40;6.80;;;;;;;-3.85;76.77;100432.55;2139732;81;21690;-67
2021/01/16 13:03:48;;;;;;;15.10;7.85;;;;;;;-3.84;76.87;100433.39;2135221;82;21172;-69
2021/01/16 13:06:50;;;;;;;13.00;7.17;;;;;;;-3.91;77.05;100433.28;2133097;81;21691;-66
2021/01/16 13:09:57;;;;;;;15.25;8.45;;;;;;;-3.92;77.18;100432.88;2140903;82;21126;-69
2021/01/16 13:12:59;;;;;;;15.05;7.33;;;;;;;-3.97;77.48;100430.50;2139055;81;21703;-68
2021/01/16 13:16:02;;;;;;;14.00;7.83;;;;;;;-3.98;77.49;100431.39;2139941;82;21184;-71
2021/01/16 13:19:06;;;;;;;14.83;7.17;;;;;;;-4.03;77.80;100419.08;2136439;82;21143;-70
2021/01/16 13:22:15;;;;;;;14.40;7.87;;;;;;;-4.10;77.71;100427.59;2139139;81;21469;-66
2021/01/16 13:25:17;;;;;;;14.00;8.60;;;;;;;-4.16;77.71;100421.84;2139752;81;21326;-66
2021/01/16 13:28:20;;;;;;;18.90;8.50;;;;;;;-4.21;77.87;100418.14;2139997;81;21197;-70
2021/01/16 13:31:24;;;;;;;16.50;9.33;;;;;;;-4.24;78.07;100413.09;2151191;81;21655;-66
2021/01/16 13:34:27;;;;;;;17.98;8.85;;;;;;;-4.28;78.38;100408.92;2156586;81;21133;-71
2021/01/16 13:37:32;;;;;;;16.82;9.43;;;;;;;-4.32;78.55;100403.50;2163362;80;21148;-70
2021/01/16 13:40:35;;;;;;;18.80;9.83;;;;;;;-4.37;78.67;100391.19;2165588;80;21173;-66
2021/01/16 13:43:41;;;;;;;24.12;13.58;;;;;;;-4.39;78.81;100394.29;2165034;80;21183;-75
2021/01/16 13:46:45;;;;;;;25.37;13.93;;;;;;;-4.44;78.83;100388.48;2164196;80;21617;-66
2021/01/16 13:49:46;;;;;;;37.23;20.37;;;;;;;-4.49;78.97;100373.59;2162147;80;21180;-68
2021/01/16 13:52:51;;;;;;;30.20;17.60;;;;;;;-4.51;79.15;100365.41;2163868;80;21162;-81
2021/01/16 13:55:57;;;;;;;58.07;26.00;;;;;;;-4.46;79.65;100361.80;2164972;80;21228;-69
2021/01/16 13:59:01;;;;;;;35.60;15.60;;;;;;;-4.45;79.38;100359.59;2165856;80;21108;-71
2021/01/16 14:02:08;;;;;;;27.00;13.05;;;;;;;-4.42;79.54;100359.02;2167245;80;21564;-73
2021/01/16 14:05:12;;;;;;;18.80;9.25;;;;;;;-4.43;79.46;100361.66;2164666;80;21117;-71
2021/01/16 14:08:16;;;;;;;27.33;11.80;;;;;;;-4.38;79.52;100370.92;2171016;80;21158;-68
2021/01/16 14:11:18;;;;;;;18.87;10.50;;;;;;;-4.37;79.46;100370.00;2168635;80;21120;-70